createdAt,value
2023-04-21T00:01:45.660Z,4.90
2023-04-21T00:04:13.971Z,4.90
2023-04-21T00:06:41.667Z,4.90
2023-04-21T00:09:09.739Z,5.00
2023-04-21T00:11:37.296Z,5.00
2023-04-21T00:14:04.698Z,4.90
2023-04-21T00:16:32.070Z,4.80
2023-04-21T00:18:59.620Z,4.70
2023-04-21T00:21:26.930Z,4.60
2023-04-21T00:23:54.338Z,4.50
2023-04-21T00:26:21.635Z,4.50
2023-04-21T00:28:50.849Z,4.50
2023-04-21T00:31:18.231Z,4.40
2023-04-21T00:33:45.774Z,4.50
2023-04-21T00:36:13.058Z,4.40
2023-04-21T00:38:40.540Z,4.30
2023-04-21T00:41:08.903Z,4.20
2023-04-21T00:43:58.474Z,4.10
2023-04-21T00:46:26.048Z,4.00
2023-04-21T00:48:54.106Z,4.00
2023-04-21T00:51:21.686Z,3.90
2023-04-21T00:53:50.084Z,3.90
2023-04-21T00:56:18.880Z,3.80
2023-04-21T00:58:46.687Z,3.80
2023-04-21T01:01:14.649Z,3.70
2023-04-21T01:03:47.653Z,3.70
2023-04-21T01:06:15.108Z,3.60
2023-04-21T01:08:42.610Z,3.50
2023-04-21T01:11:11.140Z,3.50
2023-04-21T01:13:40.902Z,3.40
2023-04-21T01:16:08.568Z,3.40
2023-04-21T01:18:37.007Z,3.40
2023-04-21T01:21:06.207Z,3.30
2023-04-21T01:23:34.530Z,3.20
2023-04-21T01:26:02.063Z,3.10
2023-04-21T01:28:29.456Z,3.20
2023-04-21T01:30:56.734Z,3.10
2023-04-21T01:33:24.384Z,3.10
2023-04-21T01:35:51.995Z,3.00
2023-04-21T01:38:21.816Z,3.00
2023-04-21T01:40:52.609Z,3.00
2023-04-21T01:43:22.014Z,3.00
2023-04-21T01:45:49.373Z,3.00
2023-04-21T01:48:16.972Z,2.90
2023-04-21T01:50:44.543Z,2.90
2023-04-21T01:53:11.900Z,2.90
2023-04-21T01:55:39.495Z,2.80
2023-04-21T01:58:10.068Z,2.80
2023-04-21T02:00:37.500Z,2.80
2023-04-21T02:03:05.825Z,2.80
2023-04-21T02:05:33.247Z,2.80
2023-04-21T02:08:00.621Z,2.70
2023-04-21T02:10:28.036Z,2.70
2023-04-21T02:12:55.412Z,2.70
2023-04-21T02:15:22.872Z,2.70
2023-04-21T02:17:50.175Z,2.60
2023-04-21T02:20:17.506Z,2.60
2023-04-21T02:22:44.790Z,2.50
2023-04-21T02:25:12.158Z,2.50
2023-04-21T02:27:39.791Z,2.50
2023-04-21T02:30:08.188Z,2.30
2023-04-21T02:32:35.650Z,2.30
2023-04-21T02:35:05.607Z,2.30
2023-04-21T02:37:33.048Z,2.30
2023-04-21T02:40:00.445Z,2.20
2023-04-21T02:42:27.740Z,2.20
2023-04-21T02:44:55.061Z,2.20
2023-04-21T02:47:22.376Z,2.20
2023-04-21T02:49:49.757Z,2.20
2023-04-21T02:52:17.063Z,2.20
2023-04-21T02:54:44.430Z,2.30
2023-04-21T02:57:11.753Z,2.30
2023-04-21T02:59:40.307Z,2.30
2023-04-21T03:02:07.723Z,2.30
2023-04-21T03:04:39.427Z,2.30
2023-04-21T03:07:12.449Z,2.20
2023-04-21T03:09:40.775Z,2.20
2023-04-21T03:12:08.182Z,2.10
2023-04-21T03:14:36.704Z,2.20
2023-04-21T03:17:04.011Z,2.20
2023-04-21T03:19:33.159Z,2.20
2023-04-21T03:22:00.465Z,2.20
2023-04-21T03:24:28.604Z,2.10
2023-04-21T03:26:57.010Z,2.10
2023-04-21T03:29:24.526Z,2.10
2023-04-21T03:31:51.880Z,2.10
2023-04-21T03:34:19.556Z,2.10
2023-04-21T03:36:46.944Z,2.00
2023-04-21T03:41:46.538Z,2.00
2023-04-21T03:44:13.893Z,2.00
2023-04-21T03:46:41.154Z,1.90
2023-04-21T03:49:08.483Z,1.90
2023-04-21T03:51:35.789Z,1.90
2023-04-21T03:54:03.273Z,1.90
2023-04-21T03:56:30.698Z,1.90
2023-04-21T03:58:58.146Z,1.90
2023-04-21T04:01:25.548Z,1.90
2023-04-21T04:03:53.056Z,1.90
2023-04-21T04:06:20.622Z,1.80
2023-04-21T04:08:48.004Z,1.90
2023-04-21T04:11:15.390Z,1.90
2023-04-21T04:13:42.734Z,1.90
2023-04-21T04:16:10.230Z,2.00
2023-04-21T04:18:37.611Z,1.90
2023-04-21T04:21:08.506Z,1.90
2023-04-21T04:23:36.605Z,1.90
2023-04-21T04:26:07.404Z,2.00
2023-04-21T04:28:34.976Z,2.00
2023-04-21T04:31:03.218Z,2.10
2023-04-21T04:33:30.653Z,2.20
2023-04-21T04:35:58.379Z,2.20
2023-04-21T04:38:25.743Z,2.30
2023-04-21T04:40:57.703Z,2.40
2023-04-21T04:43:25.607Z,2.50
2023-04-21T04:45:53.388Z,2.60
2023-04-21T04:48:20.728Z,2.60
2023-04-21T04:50:48.136Z,2.70
2023-04-21T04:53:15.889Z,2.90
2023-04-21T04:55:43.278Z,3.00
2023-04-21T04:58:10.788Z,3.10
2023-04-21T05:00:38.192Z,3.20
2023-04-21T05:03:06.044Z,3.40
2023-04-21T05:05:33.525Z,3.50
2023-04-21T05:08:00.905Z,3.60
2023-04-21T05:10:28.334Z,3.80
2023-04-21T05:12:55.723Z,3.90
2023-04-21T05:15:23.147Z,4.10
2023-04-21T05:17:50.577Z,4.20
2023-04-21T05:20:18.075Z,4.40
2023-04-21T05:22:45.387Z,4.50
2023-04-21T05:25:16.175Z,4.70
2023-04-21T05:27:43.681Z,4.80
2023-04-21T05:30:11.615Z,5.00
2023-04-21T05:32:39.065Z,5.10
2023-04-21T05:35:07.071Z,5.40
2023-04-21T05:37:34.409Z,5.60
2023-04-21T05:40:01.762Z,5.70
2023-04-21T05:42:29.108Z,5.80
2023-04-21T05:44:56.659Z,6.10
2023-04-21T05:47:23.964Z,6.30
2023-04-21T05:49:54.365Z,6.50
2023-04-21T05:52:21.933Z,6.70
2023-04-21T05:54:49.408Z,6.60
2023-04-21T05:57:17.731Z,6.70
2023-04-21T05:59:45.297Z,6.90
2023-04-21T06:02:13.452Z,7.10
2023-04-21T06:04:40.986Z,7.20
2023-04-21T06:07:10.419Z,7.50
2023-04-21T06:09:38.352Z,7.80
2023-04-21T06:12:06.122Z,7.90
2023-04-21T06:14:33.455Z,8.00
2023-04-21T06:17:00.848Z,8.20
2023-04-21T06:19:28.179Z,8.30
2023-04-21T06:21:57.168Z,8.50
2023-04-21T06:24:25.696Z,8.80
2023-04-21T06:26:53.493Z,9.10
2023-04-21T06:29:21.072Z,9.30
2023-04-21T06:31:48.645Z,9.60
2023-04-21T06:34:16.315Z,10.10
2023-04-21T06:36:44.811Z,10.40
2023-04-21T06:39:12.154Z,10.80
2023-04-21T06:41:39.777Z,11.10
2023-04-21T06:44:07.174Z,11.60
2023-04-21T06:46:34.626Z,11.90
2023-04-21T06:49:02.031Z,12.80
2023-04-21T06:51:29.443Z,14.10
2023-04-21T06:53:56.757Z,15.40
2023-04-21T06:56:24.209Z,16.80
2023-04-21T06:58:52.252Z,18.30
2023-04-21T07:01:19.658Z,18.90
2023-04-21T07:03:47.142Z,19.20
2023-04-21T07:06:14.623Z,19.20
2023-04-21T07:08:41.949Z,19.20
2023-04-21T07:11:09.374Z,19.10
2023-04-21T07:13:36.711Z,18.80
2023-04-21T07:16:04.251Z,18.70
2023-04-21T07:18:32.619Z,18.20
2023-04-21T07:21:00.349Z,18.70
2023-04-21T07:23:27.709Z,18.70
2023-04-21T07:25:58.924Z,18.60
2023-04-21T07:28:26.696Z,18.30
2023-04-21T07:30:54.151Z,18.10
2023-04-21T07:33:21.462Z,17.70
2023-04-21T07:35:48.842Z,17.90
2023-04-21T07:38:16.187Z,17.70
2023-04-21T07:40:46.076Z,18.20
2023-04-21T07:43:13.911Z,18.40
2023-04-21T07:45:41.366Z,19.00
2023-04-21T07:48:08.833Z,19.00
2023-04-21T07:50:36.614Z,19.20
2023-04-21T07:53:04.077Z,19.00
2023-04-21T07:55:31.580Z,18.70
2023-04-21T07:58:01.902Z,18.40
2023-04-21T08:00:29.629Z,18.20
2023-04-21T08:02:57.159Z,18.20
2023-04-21T08:05:27.310Z,18.20
2023-04-21T08:07:56.384Z,18.30
2023-04-21T08:10:24.129Z,18.40
2023-04-21T08:12:51.771Z,18.40
2023-04-21T08:15:19.374Z,18.10
2023-04-21T08:17:46.966Z,17.90
2023-04-21T08:20:14.604Z,17.80
2023-04-21T08:22:42.404Z,17.70
2023-04-21T08:25:10.032Z,17.80
2023-04-21T08:27:40.822Z,17.90
2023-04-21T08:30:09.255Z,17.90
2023-04-21T08:32:36.738Z,17.80
2023-04-21T08:35:04.358Z,18.10
2023-04-21T08:37:31.836Z,18.10
2023-04-21T08:39:59.420Z,18.20
2023-04-21T08:42:30.338Z,18.40
2023-04-21T08:44:58.045Z,18.60
2023-04-21T08:47:26.129Z,18.80
2023-04-21T08:49:54.570Z,18.80
2023-04-21T08:52:22.058Z,19.00
2023-04-21T08:54:53.419Z,19.10
2023-04-21T08:57:21.153Z,19.20
2023-04-21T08:59:48.639Z,19.40
2023-04-21T09:02:19.085Z,19.30
2023-04-21T09:04:49.103Z,19.40
2023-04-21T09:07:34.612Z,19.30
2023-04-21T09:10:02.442Z,19.30
2023-04-21T09:12:30.428Z,19.50
2023-04-21T09:14:58.640Z,19.60
2023-04-21T09:17:34.225Z,19.60
2023-04-21T09:20:19.338Z,19.60
2023-04-21T09:22:51.609Z,19.80
2023-04-21T09:25:22.746Z,19.90
2023-04-21T09:27:50.164Z,19.90
2023-04-21T09:30:20.578Z,20.00
2023-04-21T09:32:47.997Z,20.10
2023-04-21T09:35:15.634Z,20.20
2023-04-21T09:37:45.757Z,20.00
2023-04-21T09:40:15.104Z,20.10
2023-04-21T09:42:44.489Z,20.10
2023-04-21T09:47:51.258Z,20.40
2023-04-21T09:50:39.295Z,20.80
2023-04-21T09:53:15.522Z,21.00
2023-04-21T09:55:46.757Z,21.20
2023-04-21T09:58:19.490Z,20.90
2023-04-21T10:00:47.683Z,20.40
2023-04-21T10:03:18.241Z,20.40
2023-04-21T10:05:48.107Z,20.40
2023-04-21T10:08:17.164Z,20.30
2023-04-21T10:10:45.867Z,20.20
2023-04-21T10:13:16.688Z,20.40
2023-04-21T10:15:44.265Z,20.60
2023-04-21T10:18:20.113Z,20.80
2023-04-21T10:21:04.086Z,21.10
2023-04-21T10:23:53.024Z,21.20
2023-04-21T10:26:32.458Z,21.30
2023-04-21T10:29:07.128Z,21.10
2023-04-21T10:31:44.666Z,21.30
2023-04-21T10:34:16.878Z,21.40
2023-04-21T10:37:09.063Z,21.60
2023-04-21T10:39:48.291Z,21.50
2023-04-21T10:42:24.669Z,21.60
2023-04-21T10:45:05.308Z,21.60
2023-04-21T10:47:41.518Z,21.60
2023-04-21T10:50:14.470Z,21.80
2023-04-21T10:52:53.496Z,22.00
2023-04-21T10:55:22.003Z,21.90
2023-04-21T10:57:50.704Z,21.90
2023-04-21T11:00:20.730Z,21.80
2023-04-21T11:02:57.252Z,21.70
2023-04-21T11:05:29.464Z,21.80
2023-04-21T11:08:14.634Z,21.80
2023-04-21T11:10:53.081Z,22.00
2023-04-21T11:13:33.457Z,22.10
2023-04-21T11:16:03.611Z,22.30
2023-04-21T11:18:44.898Z,22.40
2023-04-21T11:21:17.950Z,22.40
2023-04-21T11:23:55.973Z,22.70
2023-04-21T11:26:34.171Z,22.70
2023-04-21T11:29:03.317Z,23.00
2023-04-21T11:31:31.233Z,23.40
2023-04-21T11:34:02.774Z,23.40
2023-04-21T11:36:32.187Z,23.60
2023-04-21T11:38:59.743Z,23.50
2023-04-21T11:41:27.056Z,23.50
2023-04-21T11:43:54.415Z,23.40
2023-04-21T11:46:26.839Z,23.50
2023-04-21T11:49:06.325Z,23.10
2023-04-21T11:51:39.285Z,22.90
2023-04-21T11:54:10.004Z,23.10
2023-04-21T11:56:39.533Z,23.30
2023-04-21T11:59:14.868Z,23.30
2023-04-21T12:01:53.903Z,23.00
2023-04-21T12:04:25.999Z,22.80
2023-04-21T12:07:01.865Z,22.70
2023-04-21T12:09:30.414Z,22.50
2023-04-21T12:12:02.564Z,22.30
2023-04-21T12:14:33.366Z,22.40
2023-04-21T12:17:00.755Z,22.40
2023-04-21T12:19:42.499Z,22.70
2023-04-21T12:22:11.934Z,22.60
2023-04-21T12:24:39.960Z,22.70
2023-04-21T12:27:08.436Z,22.70
2023-04-21T12:29:37.483Z,22.80
2023-04-21T12:32:08.696Z,22.80
2023-04-21T12:34:36.374Z,22.70
2023-04-21T12:37:04.092Z,22.50
2023-04-21T12:39:32.268Z,22.30
2023-04-21T12:42:00.035Z,22.30
2023-04-21T12:44:28.266Z,22.30
2023-04-21T12:46:55.903Z,22.40
2023-04-21T12:49:23.635Z,22.60
2023-04-21T12:51:51.071Z,22.90
2023-04-21T12:54:18.866Z,22.80
2023-04-21T12:56:46.933Z,23.00
2023-04-21T12:59:14.475Z,23.00
2023-04-21T13:01:44.877Z,22.90
2023-04-21T13:04:12.479Z,22.70
2023-04-21T13:06:40.618Z,23.10
2023-04-21T13:09:08.414Z,23.20
2023-04-21T13:11:35.831Z,23.30
2023-04-21T13:14:04.226Z,23.20
2023-04-21T13:16:34.341Z,23.30
2023-04-21T13:19:01.910Z,23.10
2023-04-21T13:21:29.282Z,23.20
2023-04-21T13:23:58.273Z,23.30
2023-04-21T13:26:25.957Z,23.50
2023-04-21T13:28:54.897Z,23.50
2023-04-21T13:31:22.282Z,23.80
2023-04-21T13:33:50.308Z,23.90
2023-04-21T13:36:18.983Z,23.60
2023-04-21T13:38:48.123Z,23.50
2023-04-21T13:41:15.499Z,23.50
2023-04-21T13:43:43.110Z,23.30
2023-04-21T13:46:10.501Z,23.10
2023-04-21T13:48:37.897Z,22.80
2023-04-21T13:51:05.542Z,22.80
2023-04-21T13:53:33.178Z,22.90
2023-04-21T13:56:00.617Z,22.60
2023-04-21T13:58:30.655Z,22.30
2023-04-21T14:00:57.971Z,21.70
2023-04-21T14:03:25.540Z,21.10
2023-04-21T14:05:53.039Z,20.70
2023-04-21T14:08:20.776Z,20.40
2023-04-21T14:10:48.125Z,20.50
2023-04-21T14:13:27.395Z,21.10
2023-04-21T14:16:02.715Z,21.30
2023-04-21T14:18:30.171Z,21.10
2023-04-21T14:20:57.470Z,20.90
2023-04-21T14:23:25.410Z,20.60
2023-04-21T14:25:54.849Z,20.60
2023-04-21T14:28:22.581Z,20.60
2023-04-21T14:30:50.010Z,20.60
2023-04-21T14:33:17.378Z,20.40
2023-04-21T14:35:44.759Z,20.30
2023-04-21T14:38:12.096Z,20.30
2023-04-21T14:40:39.382Z,20.20
2023-04-21T14:43:06.826Z,20.10
2023-04-21T14:45:34.185Z,19.90
2023-04-21T14:48:01.625Z,19.70
2023-04-21T14:50:29.149Z,19.60
2023-04-21T14:52:56.498Z,19.80
2023-04-21T14:55:23.812Z,20.20
2023-04-21T14:57:52.351Z,20.10
2023-04-21T15:00:20.679Z,19.90
2023-04-21T15:02:48.190Z,19.70
2023-04-21T15:05:15.865Z,19.60
2023-04-21T15:07:43.367Z,19.60
2023-04-21T15:10:11.282Z,19.60
2023-04-21T15:12:41.878Z,19.60
2023-04-21T15:15:09.710Z,19.60
2023-04-21T15:17:37.241Z,19.60
2023-04-21T15:20:05.440Z,19.90
2023-04-21T15:22:33.049Z,20.40
2023-04-21T15:25:00.517Z,20.40
2023-04-21T15:27:27.836Z,20.50
2023-04-21T15:29:55.191Z,20.70
2023-04-21T15:32:22.525Z,20.50
2023-04-21T15:34:49.886Z,19.90
2023-04-21T15:37:17.740Z,19.80
2023-04-21T15:39:45.111Z,20.20
2023-04-21T15:42:12.502Z,19.80
2023-04-21T15:44:39.951Z,19.80
2023-04-21T15:47:07.321Z,20.60
2023-04-21T15:49:34.895Z,21.20
2023-04-21T15:52:04.410Z,21.20
2023-04-21T15:54:34.132Z,21.70
2023-04-21T15:57:05.457Z,21.60
2023-04-21T15:59:34.988Z,21.90
2023-04-21T16:02:02.473Z,22.20
2023-04-21T16:04:30.231Z,22.40
2023-04-21T16:06:57.711Z,22.60
2023-04-21T16:09:25.066Z,22.70
2023-04-21T16:11:52.464Z,22.60
2023-04-21T16:14:19.957Z,21.80
2023-04-21T16:16:47.432Z,20.80
2023-04-21T16:19:14.921Z,20.10
2023-04-21T16:21:42.870Z,19.80
2023-04-21T16:24:10.891Z,19.50
2023-04-21T16:26:38.203Z,19.40
2023-04-21T16:29:05.567Z,19.30
2023-04-21T16:31:32.962Z,19.30
2023-04-21T16:34:00.540Z,19.20
2023-04-21T16:36:28.891Z,19.00
2023-04-21T16:38:56.433Z,18.80
2023-04-21T16:41:23.831Z,18.60
2023-04-21T16:43:51.209Z,18.20
2023-04-21T16:46:18.884Z,18.10
2023-04-21T16:48:46.631Z,17.90
2023-04-21T16:51:14.123Z,17.90
2023-04-21T16:53:42.120Z,17.80
2023-04-21T16:56:09.951Z,17.70
2023-04-21T16:58:37.780Z,17.70
2023-04-21T17:01:07.537Z,17.60
2023-04-21T17:03:35.398Z,17.60
2023-04-21T17:06:04.978Z,17.60
2023-04-21T17:08:32.312Z,17.60
2023-04-21T17:11:00.281Z,17.60
2023-04-21T17:13:27.639Z,17.50
2023-04-21T17:15:55.018Z,17.40
2023-04-21T17:18:22.419Z,17.30
2023-04-21T17:20:49.723Z,17.20
2023-04-21T17:23:17.094Z,17.30
2023-04-21T17:25:45.958Z,17.20
2023-04-21T17:28:15.285Z,17.10
2023-04-21T17:30:42.749Z,17.10
2023-04-21T17:35:55.658Z,17.00
2023-04-21T17:38:29.559Z,16.90
2023-04-21T17:40:56.901Z,16.80
2023-04-21T17:43:24.408Z,16.60
2023-04-21T17:45:52.468Z,16.40
2023-04-21T17:48:21.023Z,16.40
2023-04-21T17:50:48.351Z,16.30
2023-04-21T17:53:15.681Z,16.30
2023-04-21T17:55:43.436Z,16.20
2023-04-21T17:58:12.457Z,16.10
2023-04-21T18:00:40.911Z,16.00
2023-04-21T18:03:08.489Z,16.10
2023-04-21T18:05:36.231Z,16.10
2023-04-21T18:08:03.539Z,16.00
2023-04-21T18:10:31.178Z,15.90
2023-04-21T18:12:58.629Z,15.90
2023-04-21T18:15:26.016Z,15.70
2023-04-21T18:17:53.467Z,15.50
2023-04-21T18:20:20.987Z,15.40
2023-04-21T18:22:49.358Z,15.30
2023-04-21T18:25:27.292Z,15.40
2023-04-21T18:28:05.802Z,15.20
2023-04-21T18:30:33.748Z,15.10
2023-04-21T18:33:01.125Z,14.90
2023-04-21T18:35:28.484Z,14.90
2023-04-21T18:37:56.442Z,14.80
2023-04-21T18:40:24.007Z,14.90
2023-04-21T18:42:51.762Z,14.80
2023-04-21T18:45:19.191Z,14.70
2023-04-21T18:47:46.882Z,14.60
2023-04-21T18:50:14.297Z,14.60
2023-04-21T18:52:41.583Z,14.30
2023-04-21T18:55:09.562Z,14.20
2023-04-21T18:57:36.850Z,14.00
2023-04-21T19:00:05.384Z,14.00
2023-04-21T19:02:33.361Z,14.00
2023-04-21T19:05:00.759Z,13.80
2023-04-21T19:07:28.075Z,13.90
2023-04-21T19:09:55.503Z,13.60
2023-04-21T19:12:22.970Z,13.50
2023-04-21T19:17:18.600Z,13.10
2023-04-21T19:19:46.091Z,13.00
2023-04-21T19:22:13.443Z,12.90
2023-04-21T19:27:08.607Z,12.60
2023-04-21T19:29:36.963Z,12.50
2023-04-21T19:32:04.559Z,12.50
2023-04-21T19:34:32.156Z,12.40
2023-04-21T19:36:59.678Z,12.30
2023-04-21T19:39:27.745Z,12.20
2023-04-21T19:41:57.361Z,12.20
2023-04-21T19:44:24.724Z,12.10
2023-04-21T19:46:52.323Z,12.10
2023-04-21T19:49:19.666Z,12.10
2023-04-21T19:51:47.098Z,12.00
2023-04-21T19:54:14.402Z,12.10
2023-04-21T19:56:41.817Z,12.20
2023-04-21T19:59:09.091Z,12.10
2023-04-21T20:01:36.717Z,12.00
2023-04-21T20:04:04.669Z,11.90
2023-04-21T20:06:32.851Z,11.60
2023-04-21T20:09:05.679Z,11.40
2023-04-21T20:11:34.045Z,11.30
2023-04-21T20:14:01.376Z,11.10
2023-04-21T20:16:29.174Z,11.00
2023-04-21T20:18:56.642Z,10.90
2023-04-21T20:21:23.998Z,10.80
2023-04-21T20:23:51.448Z,10.50
2023-04-21T20:26:18.897Z,10.30
2023-04-21T20:28:46.919Z,10.30
2023-04-21T20:31:14.796Z,10.10
2023-04-21T20:33:42.199Z,10.00
2023-04-21T20:36:09.572Z,9.90
2023-04-21T20:38:38.359Z,9.90
2023-04-21T20:41:05.744Z,9.80
2023-04-21T20:43:33.560Z,9.70
2023-04-21T20:46:01.736Z,9.60
2023-04-21T20:48:29.110Z,9.50
2023-04-21T20:50:56.759Z,9.40
2023-04-21T20:53:24.089Z,9.30
2023-04-21T20:55:51.523Z,9.30
2023-04-21T20:58:18.868Z,9.30
2023-04-21T21:00:46.280Z,9.20
2023-04-21T21:05:42.088Z,9.00
2023-04-21T21:08:10.067Z,8.80
2023-04-21T21:10:37.428Z,8.80
2023-04-21T21:13:04.820Z,8.70
2023-04-21T21:15:32.334Z,8.70
2023-04-21T21:18:00.028Z,8.70
2023-04-21T21:20:27.418Z,8.60
2023-04-21T21:22:54.821Z,8.50
2023-04-21T21:25:22.143Z,8.30
2023-04-21T21:27:49.735Z,8.20
2023-04-21T21:30:17.133Z,8.00
2023-04-21T21:32:44.530Z,8.00
2023-04-21T21:35:12.153Z,7.90
2023-04-21T21:37:39.616Z,7.80
2023-04-21T21:40:07.869Z,7.70
2023-04-21T21:42:35.449Z,7.60
2023-04-21T21:45:02.832Z,7.60
2023-04-21T21:47:30.329Z,7.50
2023-04-21T21:49:58.903Z,7.50
2023-04-21T21:52:28.623Z,7.40
2023-04-21T21:54:56.939Z,7.40
2023-04-21T21:57:24.683Z,7.40
2023-04-21T21:59:52.465Z,7.30
2023-04-21T22:02:20.163Z,7.40
2023-04-21T22:04:47.719Z,7.30
2023-04-21T22:07:15.140Z,7.30
2023-04-21T22:09:42.425Z,7.20
2023-04-21T22:12:09.827Z,7.20
2023-04-21T22:14:37.369Z,7.10
2023-04-21T22:17:06.766Z,7.00
2023-04-21T22:19:34.227Z,7.00
2023-04-21T22:22:01.596Z,6.90
2023-04-21T22:24:28.918Z,6.90
2023-04-21T22:26:57.211Z,6.90
2023-04-21T22:29:24.498Z,6.80
2023-04-21T22:31:52.004Z,6.70
2023-04-21T22:34:19.822Z,6.70
2023-04-21T22:36:47.299Z,6.70
2023-04-21T22:39:14.645Z,6.60
2023-04-21T22:41:42.104Z,6.60
2023-04-21T22:44:09.387Z,6.50
2023-04-21T22:46:36.807Z,6.50
2023-04-21T22:49:05.174Z,6.60
2023-04-21T22:51:33.046Z,6.60
2023-04-21T22:54:00.617Z,6.70
2023-04-21T22:56:29.346Z,6.60
2023-04-21T22:58:56.959Z,6.70
2023-04-21T23:01:24.452Z,6.70
2023-04-21T23:03:51.907Z,6.80
2023-04-21T23:06:19.345Z,6.80
2023-04-21T23:08:46.676Z,6.90
2023-04-21T23:11:14.419Z,7.00
2023-04-21T23:13:41.976Z,7.00
2023-04-21T23:16:09.431Z,7.10
2023-04-21T23:18:36.842Z,7.20
2023-04-21T23:21:04.341Z,7.20
2023-04-21T23:23:31.699Z,7.10
2023-04-21T23:25:59.342Z,7.10
2023-04-21T23:28:26.672Z,7.20
2023-04-21T23:30:54.068Z,7.40
2023-04-21T23:33:21.437Z,7.40
2023-04-21T23:35:48.803Z,7.40
2023-04-21T23:38:16.147Z,7.40
2023-04-21T23:40:43.419Z,7.50
2023-04-21T23:43:10.888Z,7.40
2023-04-21T23:45:38.220Z,7.30
2023-04-21T23:48:05.728Z,7.30
2023-04-21T23:50:33.167Z,7.20
2023-04-21T23:53:01.109Z,7.20
2023-04-21T23:55:28.723Z,7.00
2023-04-21T23:57:56.096Z,6.80
